Time;durP1;ratioP1;P1;durP2;ratioP2;P2;SDS_P1;SDS_P2;PMS_P1;PMS_P2;Temp;Humidity;BMP_temperature;BMP_pressure;BME280_temperature;BME280_humidity;BME280_pressure;Samples;Min_cycle;Max_cycle;Signal;HPM_P1;HPM_P2
2022/09/11 00:01:15;;;;;;;3.00;2.80;;;19.60;85.80;;;;;;5052380;28;20188;-78
2022/09/11 00:03:42;;;;;;;2.58;2.38;;;19.60;86.00;;;;;;5047274;28;20605;-79
2022/09/11 00:06:11;;;;;;;2.58;2.47;;;19.60;85.60;;;;;;5050860;28;20187;-79
2022/09/11 00:08:39;;;;;;;3.85;2.97;;;19.70;85.10;;;;;;5049000;28;20648;-78
2022/09/11 00:11:07;;;;;;;1.95;1.95;;;19.70;85.50;;;;;;5054969;28;20219;-78
2022/09/11 00:13:34;;;;;;;2.97;2.78;;;19.70;85.20;;;;;;5057597;28;20176;-78
2022/09/11 00:16:01;;;;;;;2.80;2.53;;;19.60;85.30;;;;;;5049426;28;20191;-79
2022/09/11 00:18:28;;;;;;;2.50;2.40;;;19.60;85.10;;;;;;5049238;28;20199;-78
2022/09/11 00:20:56;;;;;;;3.00;2.88;;;19.60;85.20;;;;;;5055832;28;20190;-80
2022/09/11 00:23:24;;;;;;;2.75;2.65;;;19.60;85.00;;;;;;5058653;28;20555;-78
2022/09/11 00:25:51;;;;;;;2.75;2.65;;;19.60;85.10;;;;;;5051900;28;20731;-78
2022/09/11 00:28:20;;;;;;;2.72;2.63;;;19.60;85.10;;;;;;5049610;28;20171;-79
2022/09/11 00:30:55;;;;;;;2.50;2.47;;;19.50;85.30;;;;;;5054950;28;20215;-78
2022/09/11 00:33:21;;;;;;;2.97;2.78;;;19.50;85.70;;;;;;5052251;28;20851;-78
2022/09/11 00:35:55;;;;;;;2.88;2.70;;;19.50;85.70;;;;;;5051194;28;20179;-78
2022/09/11 00:38:21;;;;;;;4.35;2.80;;;19.50;85.60;;;;;;5046145;28;20183;-79
2022/09/11 00:40:47;;;;;;;3.83;2.75;;;19.40;85.90;;;;;;5052649;28;20196;-78
2022/09/11 00:43:15;;;;;;;2.95;2.72;;;19.40;86.00;;;;;;5048434;28;20649;-79
2022/09/11 00:45:42;;;;;;;3.38;2.55;;;19.40;86.70;;;;;;5046680;28;20275;-78
2022/09/11 00:48:10;;;;;;;3.08;2.67;;;19.30;87.30;;;;;;5051560;28;20723;-78
2022/09/11 00:50:35;;;;;;;3.00;2.80;;;19.20;86.90;;;;;;5054180;28;20210;-78
2022/09/11 00:53:07;;;;;;;2.85;2.75;;;19.20;87.30;;;;;;5051164;28;20264;-78
2022/09/11 00:55:36;;;;;;;2.88;2.78;;;19.10;87.90;;;;;;5047197;28;20180;-78
2022/09/11 00:58:09;;;;;;;2.42;2.33;;;19.10;87.50;;;;;;5049878;28;20215;-78
2022/09/11 01:00:38;;;;;;;4.45;2.47;;;19.20;86.90;;;;;;5047524;28;20571;-78
2022/09/11 01:03:04;;;;;;;2.58;2.55;;;19.30;86.80;;;;;;5045606;28;20199;-78
2022/09/11 01:05:33;;;;;;;3.47;2.47;;;19.20;87.10;;;;;;5052739;28;20700;-78
2022/09/11 01:08:02;;;;;;;3.90;3.20;;;19.20;87.80;;;;;;5052056;28;20190;-78
2022/09/11 01:11:20;;;;;;;2.75;2.65;;;19.00;88.10;;;;;;5047838;28;20211;-77
2022/09/11 01:14:04;;;;;;;2.67;2.58;;;19.00;88.40;;;;;;4943211;29;20564;-78
2022/09/11 01:16:44;;;;;;;2.65;2.45;;;18.90;88.40;;;;;;4944408;29;20235;-78
2022/09/11 01:19:37;;;;;;;3.53;2.60;;;18.90;88.20;;;;;;4946177;29;20198;-77
2022/09/11 01:22:05;;;;;;;3.25;2.10;;;18.80;88.90;;;;;;4945667;29;20306;-79
2022/09/11 01:25:03;;;;;;;2.95;2.75;;;18.80;89.50;;;;;;4946225;29;20261;-79
2022/09/11 01:27:30;;;;;;;2.72;2.53;;;18.70;89.00;;;;;;4943209;29;20191;-79
2022/09/11 01:30:12;;;;;;;2.75;2.65;;;18.70;89.10;;;;;;4918650;29;20211;-78
2022/09/11 01:33:02;;;;;;;2.15;2.15;;;18.70;88.80;;;;;;4944222;29;20190;-78
2022/09/11 01:35:36;;;;;;;2.42;2.35;;;18.70;89.60;;;;;;4944014;29;20199;-78
2022/09/11 01:38:16;;;;;;;2.92;2.25;;;18.70;88.50;;;;;;4943014;29;20679;-78
2022/09/11 01:41:02;;;;;;;2.53;2.45;;;18.60;88.20;;;;;;4944577;29;20191;-78
2022/09/11 01:43:32;;;;;;;2.03;2.03;;;18.60;88.70;;;;;;4941358;29;20669;-78
2022/09/11 01:46:01;;;;;;;2.10;2.00;;;18.60;88.50;;;;;;4924478;29;20203;-78
2022/09/11 01:48:37;;;;;;;1.83;1.83;;;18.60;88.80;;;;;;4944079;29;20643;-79
2022/09/11 01:51:06;;;;;;;1.92;1.83;;;18.50;88.20;;;;;;5026327;28;20264;-79
2022/09/11 01:53:39;;;;;;;2.03;1.98;;;18.50;88.20;;;;;;5052628;28;20184;-80
2022/09/11 01:56:12;;;;;;;2.50;2.30;;;18.50;88.10;;;;;;5046845;28;20191;-79
2022/09/11 01:58:39;;;;;;;2.28;2.17;;;18.50;88.00;;;;;;5052031;28;20191;-78
2022/09/11 02:01:15;;;;;;;2.08;1.98;;;18.60;87.60;;;;;;5049165;28;20184;-79
2022/09/11 02:03:48;;;;;;;2.10;2.00;;;18.60;87.10;;;;;;5048353;28;20183;-79
2022/09/11 02:06:20;;;;;;;2.00;1.90;;;18.60;87.20;;;;;;5051811;28;20183;-79
2022/09/11 02:09:00;;;;;;;2.30;2.13;;;18.60;87.10;;;;;;5053629;28;20248;-79
2022/09/11 02:11:30;;;;;;;2.05;2.03;;;18.60;86.80;;;;;;5049953;28;20644;-79
2022/09/11 02:14:20;;;;;;;3.25;2.08;;;18.70;86.70;;;;;;5044372;28;20184;-79
2022/09/11 02:16:55;;;;;;;2.03;1.83;;;18.70;86.60;;;;;;5045410;28;20249;-78
2022/09/11 02:19:26;;;;;;;1.83;1.73;;;18.70;86.40;;;;;;5051053;28;20541;-79
2022/09/11 02:21:52;;;;;;;2.28;2.17;;;18.70;86.40;;;;;;5049870;28;20190;-79
2022/09/11 02:24:21;;;;;;;1.85;1.85;;;18.70;86.60;;;;;;5047866;28;20183;-79
2022/09/11 02:26:57;;;;;;;7.68;2.25;;;18.70;86.50;;;;;;5048483;28;20183;-79
2022/09/11 02:29:23;;;;;;;2.47;1.95;;;18.70;85.90;;;;;;5049656;28;20210;-77
2022/09/11 02:31:51;;;;;;;2.42;2.28;;;18.70;86.20;;;;;;5047690;28;20217;-77
2022/09/11 02:34:21;;;;;;;2.13;2.03;;;18.60;86.20;;;;;;5050789;28;20183;-78
2022/09/11 02:37:30;;;;;;;3.53;2.20;;;18.60;86.90;;;;;;5045279;28;20182;-77
2022/09/11 02:40:25;;;;;;;2.47;2.38;;;18.60;86.50;;;;;;5052458;28;20187;-78
2022/09/11 02:43:15;;;;;;;2.30;2.20;;;18.60;87.80;;;;;;5051151;28;20207;-78
2022/09/11 02:46:09;;;;;;;2.05;1.95;;;18.60;86.80;;;;;;5046127;28;20257;-78
2022/09/11 02:48:40;;;;;;;1.95;1.85;;;18.60;87.80;;;;;;5050276;28;20217;-78
2022/09/11 02:51:19;;;;;;;2.42;2.22;;;18.50;87.20;;;;;;5053971;28;20215;-78
2022/09/11 02:54:23;;;;;;;2.35;2.22;;;18.50;87.90;;;;;;5050446;28;20186;-77
2022/09/11 02:56:48;;;;;;;2.47;2.28;;;18.50;87.20;;;;;;5053877;28;20210;-78
2022/09/11 02:59:30;;;;;;;2.10;2.10;;;18.40;87.90;;;;;;5050573;28;20208;-78
2022/09/11 03:02:00;;;;;;;1.85;1.83;;;18.40;87.40;;;;;;5044661;28;20192;-77
2022/09/11 03:04:28;;;;;;;2.30;2.20;;;18.40;88.00;;;;;;5054780;28;20672;-77
2022/09/11 03:06:55;;;;;;;3.83;1.98;;;18.40;88.00;;;;;;5051649;28;20183;-77
2022/09/11 03:09:21;;;;;;;2.42;2.38;;;18.40;87.90;;;;;;5050652;28;20183;-77
2022/09/11 03:11:47;;;;;;;3.00;2.17;;;18.40;88.10;;;;;;5055302;28;20603;-78
2022/09/11 03:14:13;;;;;;;2.10;2.08;;;18.30;88.10;;;;;;5048855;28;20179;-79
2022/09/11 03:16:40;;;;;;;2.15;2.15;;;18.30;88.10;;;;;;5056707;28;20191;-79
2022/09/11 03:19:07;;;;;;;2.50;2.50;;;18.20;88.20;;;;;;5052526;28;20257;-78
2022/09/11 03:21:33;;;;;;;2.22;2.17;;;18.20;88.30;;;;;;5053943;28;20195;-78
2022/09/11 03:24:00;;;;;;;2.95;2.70;;;18.20;88.10;;;;;;5050801;28;20183;-77
2022/09/11 03:26:26;;;;;;;2.55;2.45;;;18.20;88.70;;;;;;5051911;28;20183;-78
2022/09/11 03:28:53;;;;;;;2.10;1.98;;;18.20;89.40;;;;;;5057108;28;20649;-78
2022/09/11 03:31:19;;;;;;;2.30;2.20;;;18.20;89.60;;;;;;5084671;28;20211;-79
2022/09/11 03:33:44;;;;;;;2.22;2.13;;;18.10;89.90;;;;;;5052937;28;20264;-78
2022/09/11 03:36:11;;;;;;;2.03;2.03;;;18.10;89.20;;;;;;5051835;28;20266;-79
2022/09/11 03:38:36;;;;;;;2.90;2.80;;;18.10;89.50;;;;;;5054446;28;20563;-79
2022/09/11 03:41:02;;;;;;;2.22;2.22;;;18.10;90.30;;;;;;5054914;28;20191;-78
2022/09/11 03:43:28;;;;;;;2.58;2.47;;;18.10;90.50;;;;;;5052433;28;20616;-78
2022/09/11 03:45:54;;;;;;;2.08;2.08;;;18.10;90.50;;;;;;5053413;28;20184;-78
2022/09/11 03:48:19;;;;;;;2.20;2.15;;;18.10;90.60;;;;;;5053333;28;20783;-79
2022/09/11 03:50:46;;;;;;;2.80;2.70;;;18.00;90.40;;;;;;5050399;28;20218;-79
2022/09/11 03:53:12;;;;;;;2.42;2.25;;;18.00;90.10;;;;;;5049413;28;20731;-79
2022/09/11 03:55:38;;;;;;;2.40;2.17;;;17.90;89.60;;;;;;5048015;28;20207;-78
2022/09/11 03:58:06;;;;;;;3.10;2.72;;;17.90;90.00;;;;;;5053651;28;20704;-79
2022/09/11 04:00:32;;;;;;;2.40;2.30;;;17.90;89.70;;;;;;5051550;28;20223;-76
2022/09/11 04:02:59;;;;;;;2.70;2.60;;;17.80;89.90;;;;;;5054211;28;20191;-77
2022/09/11 04:05:25;;;;;;;2.20;2.10;;;17.80;90.60;;;;;;5052727;28;20199;-77
2022/09/11 04:07:52;;;;;;;2.17;2.15;;;17.80;91.30;;;;;;5059561;28;20563;-77
2022/09/11 04:10:19;;;;;;;2.50;2.30;;;17.70;91.60;;;;;;5057193;28;20703;-77
2022/09/11 04:12:45;;;;;;;3.25;2.78;;;17.70;91.30;;;;;;5052433;28;20680;-78
2022/09/11 04:15:11;;;;;;;2.30;2.22;;;17.60;91.80;;;;;;5056312;28;20202;-77
2022/09/11 04:17:37;;;;;;;2.67;2.47;;;17.60;91.20;;;;;;5049543;28;20710;-78
2022/09/11 04:20:04;;;;;;;3.35;2.60;;;17.50;91.30;;;;;;5053677;28;20183;-79
2022/09/11 04:22:29;;;;;;;2.63;2.60;;;17.50;91.10;;;;;;5049685;28;20183;-78
2022/09/11 04:24:56;;;;;;;2.55;2.35;;;17.60;91.70;;;;;;5053865;28;20175;-78
2022/09/11 04:27:22;;;;;;;2.45;2.33;;;17.60;91.70;;;;;;5050537;28;20214;-78
2022/09/11 04:29:48;;;;;;;2.63;2.45;;;17.60;91.70;;;;;;5049957;28;20204;-80
2022/09/11 04:32:15;;;;;;;2.67;2.47;;;17.60;91.70;;;;;;5056990;28;20184;-79
2022/09/11 04:34:41;;;;;;;2.55;2.55;;;17.60;91.50;;;;;;5050525;28;20554;-79
2022/09/11 04:37:07;;;;;;;3.15;2.95;;;17.60;91.30;;;;;;5046963;28;20677;-80
2022/09/11 04:39:33;;;;;;;2.70;2.53;;;17.60;91.60;;;;;;5051542;28;20222;-77
2022/09/11 04:41:59;;;;;;;2.90;2.70;;;17.60;91.90;;;;;;5052958;28;20657;-79
2022/09/11 04:44:25;;;;;;;6.28;3.13;;;17.50;91.90;;;;;;5048724;28;20198;-79
2022/09/11 04:46:50;;;;;;;2.55;2.45;;;17.60;91.90;;;;;;5054233;28;20179;-79
2022/09/11 04:49:16;;;;;;;2.67;2.58;;;17.60;91.80;;;;;;5052075;28;20214;-80
2022/09/11 04:51:44;;;;;;;3.85;2.53;;;17.60;92.30;;;;;;5055081;28;20187;-80
2022/09/11 04:54:14;;;;;;;3.22;2.80;;;17.50;92.40;;;;;;5050685;28;20230;-80
2022/09/11 04:56:39;;;;;;;2.85;2.65;;;17.50;92.10;;;;;;5051849;28;20257;-80
2022/09/11 04:59:08;;;;;;;3.47;3.00;;;17.50;92.00;;;;;;5052404;28;20202;-79
2022/09/11 05:01:34;;;;;;;3.08;2.97;;;17.50;92.20;;;;;;5045085;28;20196;-78
2022/09/11 05:04:00;;;;;;;3.15;2.78;;;17.60;92.00;;;;;;5051137;28;20184;-78
2022/09/11 05:06:29;;;;;;;3.17;2.97;;;17.60;92.00;;;;;;5049661;28;20798;-79
2022/09/11 05:08:55;;;;;;;2.92;2.83;;;17.60;92.10;;;;;;5054219;28;20183;-77
2022/09/11 05:11:21;;;;;;;2.80;2.70;;;17.60;92.10;;;;;;5045727;28;20211;-77
2022/09/11 05:13:47;;;;;;;3.65;3.38;;;17.60;92.10;;;;;;5048923;28;20203;-78
2022/09/11 05:16:16;;;;;;;2.92;2.83;;;17.60;92.80;;;;;;5055557;28;20182;-78
2022/09/11 05:18:47;;;;;;;2.85;2.75;;;17.60;92.90;;;;;;5055818;28;20179;-78
2022/09/11 05:21:14;;;;;;;3.22;3.13;;;17.60;92.50;;;;;;5053183;28;20184;-76
2022/09/11 05:23:41;;;;;;;3.45;3.25;;;17.60;92.90;;;;;;5050948;28;20195;-78
2022/09/11 05:26:13;;;;;;;4.03;3.60;;;17.60;93.20;;;;;;5054097;28;20262;-78
2022/09/11 05:28:39;;;;;;;3.80;3.60;;;17.60;92.70;;;;;;5049161;28;20628;-78
2022/09/11 05:31:11;;;;;;;3.42;3.33;;;17.70;93.00;;;;;;5047636;28;20361;-76
2022/09/11 05:33:36;;;;;;;3.40;3.30;;;17.70;92.50;;;;;;5054141;28;20183;-80
2022/09/11 05:36:04;;;;;;;3.83;3.63;;;17.80;92.90;;;;;;5054063;28;20189;-77
2022/09/11 05:38:29;;;;;;;3.28;3.08;;;17.80;92.70;;;;;;5050889;28;20175;-77
2022/09/11 05:40:55;;;;;;;3.85;3.65;;;17.70;93.90;;;;;;5053654;28;20744;-77
2022/09/11 05:43:21;;;;;;;3.78;3.47;;;17.80;93.10;;;;;;5047737;28;20200;-78
2022/09/11 05:45:56;;;;;;;3.80;3.55;;;17.90;92.60;;;;;;5047906;28;20191;-79
2022/09/11 05:48:23;;;;;;;3.40;3.17;;;17.90;92.70;;;;;;5051247;28;20179;-78
2022/09/11 05:50:53;;;;;;;3.42;3.33;;;17.90;92.60;;;;;;5048909;28;20215;-77
2022/09/11 05:53:22;;;;;;;4.38;4.18;;;18.00;92.30;;;;;;5050172;28;20198;-77
2022/09/11 05:55:50;;;;;;;4.07;3.88;;;18.00;92.60;;;;;;5049420;28;20179;-77
2022/09/11 05:58:16;;;;;;;4.57;4.25;;;18.00;93.30;;;;;;5055094;28;20178;-77
2022/09/11 06:00:45;;;;;;;4.20;3.67;;;18.00;93.30;;;;;;5048634;28;20184;-76
2022/09/11 06:03:12;;;;;;;4.28;3.88;;;18.00;93.20;;;;;;5050176;28;21582;-78
2022/09/11 06:05:37;;;;;;;4.20;3.90;;;18.10;93.10;;;;;;5050837;28;20278;-77
2022/09/11 06:08:03;;;;;;;3.95;3.65;;;18.20;92.60;;;;;;5047269;28;20731;-77
2022/09/11 06:10:29;;;;;;;8.00;4.55;;;18.30;92.20;;;;;;5054849;28;20211;-78
2022/09/11 06:12:56;;;;;;;6.80;4.63;;;18.40;92.60;;;;;;5054114;28;20867;-77
2022/09/11 06:15:21;;;;;;;6.00;4.80;;;18.40;91.90;;;;;;5053029;28;20217;-77
2022/09/11 06:17:47;;;;;;;4.18;3.97;;;18.40;92.30;;;;;;5048660;28;20211;-77
2022/09/11 06:20:13;;;;;;;4.90;4.60;;;18.60;91.50;;;;;;5051836;28;20455;-77
2022/09/11 06:22:38;;;;;;;5.82;4.72;;;18.60;91.20;;;;;;5048210;28;20183;-77
2022/09/11 06:25:05;;;;;;;5.50;5.10;;;18.60;91.90;;;;;;5049163;28;20184;-78
2022/09/11 06:27:30;;;;;;;4.68;4.38;;;18.60;91.50;;;;;;5048253;28;20188;-78
2022/09/11 06:29:56;;;;;;;4.40;4.10;;;18.70;91.70;;;;;;5055678;28;20313;-78
2022/09/11 06:32:22;;;;;;;5.70;5.20;;;18.60;91.90;;;;;;5043526;28;20274;-78
2022/09/11 06:34:47;;;;;;;5.30;4.90;;;18.60;91.90;;;;;;5046422;28;20210;-77
2022/09/11 06:37:13;;;;;;;5.70;4.93;;;18.80;91.10;;;;;;5043892;28;20695;-78
2022/09/11 06:39:39;;;;;;;4.72;4.43;;;18.80;91.30;;;;;;5046604;28;20270;-75
2022/09/11 06:42:06;;;;;;;5.10;4.85;;;18.80;91.10;;;;;;5040944;28;20244;-76
2022/09/11 06:44:32;;;;;;;6.95;4.63;;;19.00;90.90;;;;;;5051126;28;20191;-75
2022/09/11 06:46:58;;;;;;;4.75;4.45;;;19.10;90.50;;;;;;5047280;28;20187;-75
2022/09/11 06:49:24;;;;;;;4.90;4.55;;;19.20;90.70;;;;;;5052521;28;20188;-76
2022/09/11 06:51:51;;;;;;;5.10;4.80;;;19.30;90.90;;;;;;5050378;28;20191;-75
2022/09/11 06:54:17;;;;;;;5.72;5.28;;;19.20;89.90;;;;;;5045105;28;20217;-75
2022/09/11 06:56:44;;;;;;;5.07;4.78;;;19.30;89.80;;;;;;5043677;28;20721;-76
2022/09/11 06:59:09;;;;;;;4.72;4.45;;;19.40;89.30;;;;;;5042192;28;20190;-76
2022/09/11 07:01:35;;;;;;;5.20;4.80;;;19.50;89.00;;;;;;5045934;28;20183;-76
2022/09/11 07:04:01;;;;;;;5.10;4.80;;;19.60;89.30;;;;;;5046624;28;20179;-76
2022/09/11 07:06:29;;;;;;;4.47;4.20;;;19.70;88.70;;;;;;5050244;28;20258;-76
2022/09/11 07:09:02;;;;;;;4.55;4.25;;;19.80;88.10;;;;;;5060849;28;20270;-76
2022/09/11 07:11:33;;;;;;;4.53;4.22;;;20.00;87.80;;;;;;5044812;28;20712;-76
2022/09/11 07:14:04;;;;;;;4.00;3.60;;;20.10;87.50;;;;;;5047373;28;20188;-76
2022/09/11 07:16:31;;;;;;;4.32;4.13;;;20.20;86.00;;;;;;5050077;28;20230;-79
2022/09/11 07:18:57;;;;;;;4.22;4.03;;;20.30;86.30;;;;;;5054143;28;20188;-80
2022/09/11 07:21:25;;;;;;;4.65;4.25;;;20.40;85.60;;;;;;5049237;28;20677;-80
2022/09/11 07:23:53;;;;;;;4.75;4.45;;;20.50;85.10;;;;;;5046541;28;20180;-80
2022/09/11 07:26:20;;;;;;;4.50;4.30;;;20.60;84.80;;;;;;5052312;28;20179;-80
2022/09/11 07:28:50;;;;;;;3.63;3.50;;;20.60;84.50;;;;;;5049409;28;20264;-80
2022/09/11 07:31:19;;;;;;;4.03;3.83;;;20.70;84.30;;;;;;5049134;28;20212;-80
2022/09/11 07:33:47;;;;;;;5.88;5.47;;;20.80;83.40;;;;;;5046357;28;20176;-79
2022/09/11 07:36:17;;;;;;;4.53;4.32;;;20.80;83.20;;;;;;5047413;28;20192;-80
2022/09/11 07:38:44;;;;;;;5.18;4.30;;;20.90;82.60;;;;;;5047974;28;20183;-80
2022/09/11 07:41:10;;;;;;;4.93;4.63;;;20.80;81.80;;;;;;5077935;28;20201;-82
2022/09/11 07:43:37;;;;;;;4.25;4.05;;;20.90;82.80;;;;;;5049633;28;20192;-81
2022/09/11 07:46:04;;;;;;;3.85;3.72;;;21.00;82.20;;;;;;5048475;28;20179;-80
2022/09/11 07:48:30;;;;;;;4.93;4.53;;;21.00;81.60;;;;;;5047836;28;20252;-81
2022/09/11 07:50:58;;;;;;;5.20;4.70;;;21.10;81.40;;;;;;5051621;28;20211;-81
2022/09/11 07:53:24;;;;;;;4.95;4.75;;;21.10;80.80;;;;;;5054861;28;20182;-83
2022/09/11 07:55:50;;;;;;;4.80;4.55;;;21.10;81.80;;;;;;5051577;28;20187;-81
2022/09/11 07:58:16;;;;;;;4.55;4.35;;;21.20;82.10;;;;;;5052213;28;20175;-82
2022/09/11 08:00:42;;;;;;;5.00;4.70;;;21.30;80.70;;;;;;5050534;28;20237;-83
2022/09/11 08:03:08;;;;;;;5.22;4.82;;;21.30;80.90;;;;;;5054527;28;20179;-83
2022/09/11 08:05:33;;;;;;;4.85;4.55;;;21.30;80.80;;;;;;5054091;28;20179;-83
2022/09/11 08:07:59;;;;;;;4.85;4.57;;;21.20;80.60;;;;;;5052882;28;20202;-84
2022/09/11 08:10:25;;;;;;;4.93;4.63;;;21.30;80.50;;;;;;5054048;28;20767;-83
2022/09/11 08:12:51;;;;;;;5.57;5.20;;;21.40;80.40;;;;;;5057719;28;20750;-84
2022/09/11 08:15:18;;;;;;;5.25;4.85;;;21.40;79.90;;;;;;5049220;28;20179;-82
2022/09/11 08:17:44;;;;;;;5.35;5.00;;;21.50;80.70;;;;;;5059742;28;20206;-85
2022/09/11 08:20:09;;;;;;;5.55;5.15;;;21.70;79.50;;;;;;5051578;28;20214;-80
2022/09/11 08:22:35;;;;;;;4.95;4.55;;;21.80;80.10;;;;;;5052254;28;20727;-76
2022/09/11 08:25:00;;;;;;;6.25;5.70;;;21.90;79.00;;;;;;5050141;28;20207;-80
2022/09/11 08:27:26;;;;;;;5.78;5.22;;;22.10;79.00;;;;;;5055250;28;20190;-80
2022/09/11 08:29:52;;;;;;;6.00;5.60;;;22.20;78.90;;;;;;5052800;28;20218;-80
2022/09/11 08:32:19;;;;;;;5.13;4.90;;;22.30;78.80;;;;;;5047147;28;20188;-79
2022/09/11 08:34:44;;;;;;;4.82;4.60;;;22.60;79.20;;;;;;5051085;28;20641;-83
2022/09/11 08:37:10;;;;;;;5.57;5.18;;;22.90;77.70;;;;;;5053758;28;20209;-82
2022/09/11 08:39:36;;;;;;;5.13;4.72;;;23.50;76.70;;;;;;5054890;28;20252;-82
2022/09/11 08:42:08;;;;;;;5.30;4.97;;;23.90;75.90;;;;;;5064782;28;20186;-83
2022/09/11 08:44:50;;;;;;;5.60;5.25;;;24.40;74.30;;;;;;5058120;28;20195;-83
2022/09/11 08:47:20;;;;;;;5.00;4.72;;;25.00;70.30;;;;;;5060681;28;20178;-83
2022/09/11 08:50:07;;;;;;;5.10;4.82;;;25.60;71.20;;;;;;5071475;28;20758;-84
2022/09/11 08:52:35;;;;;;;5.68;5.30;;;26.20;71.20;;;;;;5064212;28;20198;-83
2022/09/11 08:55:01;;;;;;;5.07;4.78;;;27.00;69.40;;;;;;5053406;28;20187;-83
2022/09/11 08:57:41;;;;;;;5.35;5.05;;;27.70;67.40;;;;;;5057586;28;20184;-83
2022/09/11 09:00:13;;;;;;;5.28;4.78;;;28.20;67.40;;;;;;5057337;28;20210;-84
2022/09/11 09:03:12;;;;;;;6.32;6.03;;;28.70;67.20;;;;;;5054144;28;20255;-82
2022/09/11 09:05:52;;;;;;;5.05;4.85;;;29.30;65.00;;;;;;5053440;28;20184;-82
2022/09/11 09:08:34;;;;;;;5.47;5.18;;;29.40;61.90;;;;;;5053852;28;20170;-83
2022/09/11 09:11:28;;;;;;;5.00;4.90;;;29.40;63.00;;;;;;5045139;28;20214;-83
2022/09/11 09:14:15;;;;;;;4.85;4.65;;;29.60;60.80;;;;;;5052039;28;20183;-82
2022/09/11 09:16:44;;;;;;;5.40;4.97;;;29.90;63.90;;;;;;5048799;28;20201;-81
2022/09/11 09:19:24;;;;;;;5.00;4.80;;;30.10;62.40;;;;;;5050769;28;20179;-82
2022/09/11 09:22:11;;;;;;;4.85;4.65;;;29.80;58.60;;;;;;5043591;28;20191;-83
2022/09/11 09:24:55;;;;;;;5.07;4.88;;;29.40;60.00;;;;;;5049842;28;20672;-83
2022/09/11 09:27:27;;;;;;;4.40;4.28;;;29.40;59.00;;;;;;5055916;28;20190;-82
2022/09/11 09:29:57;;;;;;;4.55;4.35;;;29.40;58.50;;;;;;5049059;28;20728;-83
2022/09/11 09:32:38;;;;;;;4.90;4.70;;;29.50;62.20;;;;;;5054527;28;20171;-82
2022/09/11 09:35:15;;;;;;;5.18;4.88;;;30.00;59.50;;;;;;5048652;28;20664;-82
2022/09/11 09:37:41;;;;;;;3.97;3.88;;;30.50;62.10;;;;;;5044606;28;20183;-82
2022/09/11 09:40:09;;;;;;;5.30;5.00;;;31.00;61.20;;;;;;5054246;28;20190;-82
2022/09/11 09:42:35;;;;;;;4.63;4.43;;;31.60;57.10;;;;;;5054260;28;20182;-82
2022/09/11 09:45:06;;;;;;;4.55;4.45;;;32.10;58.50;;;;;;5052484;28;20199;-83
2022/09/11 09:47:32;;;;;;;4.80;4.60;;;32.80;53.80;;;;;;5051635;28;20190;-83
2022/09/11 09:49:58;;;;;;;4.25;4.15;;;33.40;58.80;;;;;;5047946;28;20227;-83
2022/09/11 09:52:30;;;;;;;4.80;4.40;;;33.90;55.20;;;;;;5049045;28;20179;-83
2022/09/11 09:55:01;;;;;;;5.00;4.60;;;34.40;54.30;;;;;;5057159;28;20266;-83
2022/09/11 09:57:32;;;;;;;4.35;4.18;;;35.00;55.80;;;;;;5054838;28;20175;-84
2022/09/11 10:00:05;;;;;;;4.22;4.13;;;35.50;55.90;;;;;;5054067;28;20190;-83
2022/09/11 10:02:39;;;;;;;4.40;4.30;;;36.20;54.40;;;;;;5045874;28;20248;-83
2022/09/11 10:05:25;;;;;;;4.30;4.20;;;36.80;54.40;;;;;;5042967;28;20270;-83
2022/09/11 10:07:53;;;;;;;3.85;3.75;;;37.60;49.60;;;;;;5049997;28;20286;-83
2022/09/11 10:10:39;;;;;;;4.13;4.03;;;37.90;46.70;;;;;;5052336;28;20221;-82
2022/09/11 10:13:23;;;;;;;4.07;3.97;;;38.00;46.40;;;;;;5056355;28;20966;-83
2022/09/11 10:15:54;;;;;;;4.03;3.88;;;37.80;47.70;;;;;;5052138;28;20520;-82
2022/09/11 10:18:34;;;;;;;5.30;5.10;;;37.30;47.20;;;;;;5054565;28;20235;-81
2022/09/11 10:21:12;;;;;;;4.30;4.00;;;37.00;52.80;;;;;;5052974;28;20619;-82
2022/09/11 10:24:04;;;;;;;4.20;3.88;;;37.00;48.80;;;;;;5046514;28;20183;-81
2022/09/11 10:26:44;;;;;;;4.88;4.65;;;37.20;52.30;;;;;;5051938;28;20190;-81
2022/09/11 10:29:26;;;;;;;3.80;3.70;;;37.40;46.90;;;;;;5052731;28;20190;-80
2022/09/11 10:32:01;;;;;;;4.30;4.00;;;37.20;46.40;;;;;;5049425;28;20199;-80
2022/09/11 10:34:35;;;;;;;3.63;3.53;;;37.20;47.70;;;;;;5046041;28;20194;-79
2022/09/11 10:37:00;;;;;;;3.88;3.83;;;37.20;46.50;;;;;;5050146;28;20187;-83
2022/09/11 10:39:33;;;;;;;4.10;3.85;;;37.10;47.30;;;;;;5051059;28;20187;-79
2022/09/11 10:42:06;;;;;;;3.75;3.65;;;37.00;47.30;;;;;;5052740;28;20552;-82
2022/09/11 10:44:32;;;;;;;3.13;3.13;;;37.10;47.20;;;;;;5047545;28;20205;-80
2022/09/11 10:47:14;;;;;;;3.75;3.65;;;37.30;48.40;;;;;;5062653;28;20640;-78
2022/09/11 10:49:41;;;;;;;3.33;3.33;;;37.50;48.00;;;;;;5055578;28;20214;-78
2022/09/11 10:52:06;;;;;;;3.53;3.42;;;37.50;51.80;;;;;;5045861;28;20183;-77
2022/09/11 10:54:39;;;;;;;3.65;3.55;;;37.70;46.60;;;;;;5061144;28;20189;-81
2022/09/11 10:57:22;;;;;;;3.17;3.17;;;37.80;49.50;;;;;;5066656;28;20270;-80
2022/09/11 11:00:16;;;;;;;3.78;3.67;;;38.00;52.00;;;;;;5049163;28;20186;-81
2022/09/11 11:02:49;;;;;;;4.10;4.00;;;38.30;50.20;;;;;;5049212;28;20795;-85
2022/09/11 11:05:29;;;;;;;3.95;3.83;;;38.20;50.90;;;;;;5049796;28;20187;-85
2022/09/11 11:08:10;;;;;;;3.85;3.75;;;38.10;49.90;;;;;;5049939;28;20629;-84
2022/09/11 11:10:39;;;;;;;3.90;3.70;;;38.20;51.10;;;;;;5046925;28;20609;-85
2022/09/11 11:13:37;;;;;;;3.95;3.85;;;38.30;45.60;;;;;;5049774;28;20179;-83
2022/09/11 11:16:26;;;;;;;3.67;3.60;;;38.20;46.20;;;;;;5049974;28;20274;-83
2022/09/11 11:19:19;;;;;;;3.92;3.83;;;38.30;45.50;;;;;;5080940;28;20183;-84
2022/09/11 11:22:18;;;;;;;3.85;3.75;;;38.50;48.50;;;;;;5049138;28;20687;-84
2022/09/11 11:25:02;;;;;;;3.08;3.08;;;38.70;45.00;;;;;;5052899;28;20190;-86
2022/09/11 11:27:39;;;;;;;3.65;3.55;;;38.90;46.00;;;;;;5052657;28;20238;-84
2022/09/11 11:30:08;;;;;;;4.07;3.88;;;39.00;47.60;;;;;;5047768;28;20206;-85
2022/09/11 11:32:35;;;;;;;3.28;3.28;;;38.90;45.40;;;;;;5051892;28;20675;-84
2022/09/11 11:35:16;;;;;;;3.90;3.80;;;38.80;44.80;;;;;;5051556;28;20333;-84
2022/09/11 11:37:46;;;;;;;3.92;3.83;;;38.70;48.40;;;;;;5050620;28;20201;-84
2022/09/11 11:40:52;;;;;;;4.18;4.07;;;38.50;44.60;;;;;;5052969;28;20182;-87
2022/09/11 11:43:26;;;;;;;3.70;3.67;;;38.20;48.30;;;;;;5051745;28;20289;-85
2022/09/11 11:45:55;;;;;;;3.30;3.20;;;38.10;48.50;;;;;;5083938;28;20182;-85
2022/09/11 11:48:45;;;;;;;4.60;3.42;;;38.20;50.30;;;;;;5056280;28;20183;-85
2022/09/11 11:51:17;;;;;;;3.70;3.50;;;38.50;49.60;;;;;;5051479;28;20226;-83
2022/09/11 11:54:12;;;;;;;3.78;3.70;;;38.70;48.00;;;;;;5052581;28;20202;-83
2022/09/11 11:56:53;;;;;;;3.58;3.45;;;38.60;47.40;;;;;;5048845;28;20183;-84
2022/09/11 11:59:43;;;;;;;3.20;3.10;;;38.20;45.60;;;;;;5052041;28;20231;-85
2022/09/11 12:02:08;;;;;;;3.15;3.05;;;37.80;50.00;;;;;;5052858;28;20190;-84
2022/09/11 12:04:52;;;;;;;3.78;3.65;;;37.80;46.20;;;;;;5053828;28;20183;-83
2022/09/11 12:07:29;;;;;;;3.70;3.45;;;37.20;45.00;;;;;;5054589;28;20639;-83
2022/09/11 12:09:57;;;;;;;2.95;2.95;;;36.60;46.30;;;;;;5050318;28;20215;-83
2022/09/11 12:12:26;;;;;;;3.97;3.53;;;36.40;45.90;;;;;;5052499;28;20274;-83
2022/09/11 12:14:55;;;;;;;3.25;3.15;;;36.50;50.60;;;;;;5049845;28;20548;-82
2022/09/11 12:17:30;;;;;;;3.75;3.65;;;36.50;47.90;;;;;;5049183;28;20179;-82
2022/09/11 12:20:30;;;;;;;3.45;3.15;;;36.50;48.60;;;;;;5052133;28;20265;-82
2022/09/11 12:22:57;;;;;;;3.53;3.42;;;36.10;48.10;;;;;;5064573;28;20693;-82
2022/09/11 12:25:29;;;;;;;3.85;3.65;;;35.40;48.30;;;;;;5047935;28;20570;-86
2022/09/11 12:28:21;;;;;;;3.80;3.70;;;34.90;50.30;;;;;;5052178;28;20678;-85
2022/09/11 12:30:58;;;;;;;3.28;3.28;;;34.70;49.80;;;;;;5052538;28;20210;-85
2022/09/11 12:33:46;;;;;;;3.67;3.50;;;34.60;48.40;;;;;;5051711;28;20247;-83
2022/09/11 12:36:23;;;;;;;3.80;3.67;;;34.40;48.70;;;;;;5048037;28;20616;-84
2022/09/11 12:39:24;;;;;;;3.35;3.28;;;34.30;51.00;;;;;;5057660;28;20183;-85
2022/09/11 12:41:50;;;;;;;3.20;3.13;;;34.50;48.90;;;;;;5019451;28;20192;-84
2022/09/11 12:44:44;;;;;;;2.90;2.90;;;34.70;51.90;;;;;;5021490;28;20743;-82
2022/09/11 12:47:18;;;;;;;2.85;2.85;;;35.20;49.40;;;;;;4984277;28;20264;-84
2022/09/11 12:50:13;;;;;;;2.97;2.95;;;35.70;49.70;;;;;;4980635;28;20189;-82
2022/09/11 12:52:44;;;;;;;3.00;3.00;;;36.20;49.60;;;;;;4980327;28;20236;-82
2022/09/11 12:55:38;;;;;;;3.03;3.03;;;36.70;48.40;;;;;;4983344;28;20219;-83
2022/09/11 12:58:27;;;;;;;3.20;3.20;;;36.90;47.10;;;;;;4967649;28;20216;-83
2022/09/11 13:01:13;;;;;;;3.47;3.38;;;37.20;45.50;;;;;;4948960;28;20190;-82
2022/09/11 13:04:11;;;;;;;2.92;2.90;;;37.00;44.70;;;;;;4965688;28;20228;-81
2022/09/11 13:06:44;;;;;;;3.47;3.35;;;36.70;45.50;;;;;;4949004;28;20193;-81
2022/09/11 13:09:29;;;;;;;3.35;3.13;;;36.40;45.30;;;;;;4965411;28;20633;-81
2022/09/11 13:12:16;;;;;;;3.70;3.60;;;36.20;46.90;;;;;;4963875;28;20288;-82
2022/09/11 13:14:48;;;;;;;3.55;3.45;;;36.10;47.00;;;;;;4962889;28;20200;-81